sensor_id;sensor_type;location;lat;lon;timestamp;temperature;humidity
30572;DHT22;17348;50.948;10.696;2023-03-25T00:01:38;9.90;99.90
30572;DHT22;17348;50.948;10.696;2023-03-25T00:04:42;9.90;99.90
30572;DHT22;17348;50.948;10.696;2023-03-25T00:07:47;9.80;99.90
30572;DHT22;17348;50.948;10.696;2023-03-25T00:10:51;9.70;99.90
30572;DHT22;17348;50.948;10.696;2023-03-25T00:13:54;9.70;99.90
30572;DHT22;17348;50.948;10.696;2023-03-25T00:16:56;9.60;99.90
30572;DHT22;17348;50.948;10.696;2023-03-25T00:20:00;9.60;99.90
30572;DHT22;17348;50.948;10.696;2023-03-25T00:23:06;9.60;99.90
30572;DHT22;17348;50.948;10.696;2023-03-25T00:26:08;9.50;99.90
30572;DHT22;17348;50.948;10.696;2023-03-25T00:29:11;9.40;99.90
30572;DHT22;17348;50.948;10.696;2023-03-25T00:32:14;9.30;99.90
30572;DHT22;17348;50.948;10.696;2023-03-25T00:35:18;9.30;99.90
30572;DHT22;17348;50.948;10.696;2023-03-25T00:38:21;9.20;99.90
30572;DHT22;17348;50.948;10.696;2023-03-25T00:41:24;9.20;99.90
30572;DHT22;17348;50.948;10.696;2023-03-25T00:44:27;9.20;99.90
30572;DHT22;17348;50.948;10.696;2023-03-25T00:47:29;9.20;99.90
30572;DHT22;17348;50.948;10.696;2023-03-25T00:50:33;9.20;99.90
30572;DHT22;17348;50.948;10.696;2023-03-25T00:53:36;9.20;99.90
30572;DHT22;17348;50.948;10.696;2023-03-25T00:56:39;9.20;99.90
30572;DHT22;17348;50.948;10.696;2023-03-25T00:59:41;9.20;99.90
30572;DHT22;17348;50.948;10.696;2023-03-25T01:02:43;9.30;99.90
30572;DHT22;17348;50.948;10.696;2023-03-25T01:05:48;9.30;99.90
30572;DHT22;17348;50.948;10.696;2023-03-25T01:08:51;9.40;99.90
30572;DHT22;17348;50.948;10.696;2023-03-25T01:11:53;9.40;99.90
30572;DHT22;17348;50.948;10.696;2023-03-25T01:14:55;9.50;99.90
30572;DHT22;17348;50.948;10.696;2023-03-25T01:17:58;9.50;99.90
30572;DHT22;17348;50.948;10.696;2023-03-25T01:21:01;9.50;99.90
30572;DHT22;17348;50.948;10.696;2023-03-25T01:24:05;9.50;99.90
30572;DHT22;17348;50.948;10.696;2023-03-25T01:27:08;9.50;99.90
30572;DHT22;17348;50.948;10.696;2023-03-25T01:30:12;9.50;99.90
30572;DHT22;17348;50.948;10.696;2023-03-25T01:33:15;9.40;99.90
30572;DHT22;17348;50.948;10.696;2023-03-25T01:36:18;9.50;99.90
30572;DHT22;17348;50.948;10.696;2023-03-25T01:39:21;9.50;99.90
30572;DHT22;17348;50.948;10.696;2023-03-25T01:42:23;9.50;99.90
30572;DHT22;17348;50.948;10.696;2023-03-25T01:45:27;9.50;99.90
30572;DHT22;17348;50.948;10.696;2023-03-25T01:48:32;9.60;99.90
30572;DHT22;17348;50.948;10.696;2023-03-25T01:51:39;9.60;99.90
30572;DHT22;17348;50.948;10.696;2023-03-25T01:54:45;9.70;99.90
30572;DHT22;17348;50.948;10.696;2023-03-25T01:57:50;9.70;99.90
30572;DHT22;17348;50.948;10.696;2023-03-25T02:00:55;9.70;99.90
30572;DHT22;17348;50.948;10.696;2023-03-25T02:03:59;9.70;99.90
30572;DHT22;17348;50.948;10.696;2023-03-25T02:07:11;9.70;99.90
30572;DHT22;17348;50.948;10.696;2023-03-25T02:10:17;9.70;99.90
30572;DHT22;17348;50.948;10.696;2023-03-25T02:13:20;9.70;99.90
30572;DHT22;17348;50.948;10.696;2023-03-25T02:16:29;9.70;99.90
30572;DHT22;17348;50.948;10.696;2023-03-25T02:20:05;9.70;99.90
30572;DHT22;17348;50.948;10.696;2023-03-25T02:27:11;9.60;99.90
30572;DHT22;17348;50.948;10.696;2023-03-25T02:34:14;9.50;99.90
30572;DHT22;17348;50.948;10.696;2023-03-25T02:37:43;9.50;99.90
30572;DHT22;17348;50.948;10.696;2023-03-25T02:40:51;9.50;99.90
30572;DHT22;17348;50.948;10.696;2023-03-25T02:43:58;9.50;99.90
30572;DHT22;17348;50.948;10.696;2023-03-25T02:47:06;9.40;99.90
30572;DHT22;17348;50.948;10.696;2023-03-25T02:50:13;9.40;99.90
30572;DHT22;17348;50.948;10.696;2023-03-25T02:53:22;9.40;99.90
30572;DHT22;17348;50.948;10.696;2023-03-25T02:56:27;9.40;99.90
30572;DHT22;17348;50.948;10.696;2023-03-25T02:59:33;9.30;99.90
30572;DHT22;17348;50.948;10.696;2023-03-25T03:02:38;9.20;99.90
30572;DHT22;17348;50.948;10.696;2023-03-25T03:05:45;9.20;99.90
30572;DHT22;17348;50.948;10.696;2023-03-25T03:09:09;9.20;99.90
30572;DHT22;17348;50.948;10.696;2023-03-25T03:12:25;9.30;99.90
30572;DHT22;17348;50.948;10.696;2023-03-25T03:15:38;9.20;99.90
30572;DHT22;17348;50.948;10.696;2023-03-25T03:18:47;9.20;99.90
30572;DHT22;17348;50.948;10.696;2023-03-25T03:21:57;9.20;99.90
30572;DHT22;17348;50.948;10.696;2023-03-25T03:25:07;9.20;99.90
30572;DHT22;17348;50.948;10.696;2023-03-25T03:28:15;9.20;99.90
30572;DHT22;17348;50.948;10.696;2023-03-25T03:31:23;9.20;99.90
30572;DHT22;17348;50.948;10.696;2023-03-25T03:34:29;9.20;99.90
30572;DHT22;17348;50.948;10.696;2023-03-25T03:37:36;9.20;99.90
30572;DHT22;17348;50.948;10.696;2023-03-25T03:40:45;9.10;99.90
30572;DHT22;17348;50.948;10.696;2023-03-25T03:43:51;9.10;99.90
30572;DHT22;17348;50.948;10.696;2023-03-25T03:46:58;9.00;99.90
30572;DHT22;17348;50.948;10.696;2023-03-25T03:50:05;8.90;99.90
30572;DHT22;17348;50.948;10.696;2023-03-25T03:53:13;8.80;99.90
30572;DHT22;17348;50.948;10.696;2023-03-25T03:56:20;8.80;99.90
30572;DHT22;17348;50.948;10.696;2023-03-25T03:59:29;8.70;99.90
30572;DHT22;17348;50.948;10.696;2023-03-25T04:02:39;8.70;99.90
30572;DHT22;17348;50.948;10.696;2023-03-25T04:05:46;8.70;99.90
30572;DHT22;17348;50.948;10.696;2023-03-25T04:08:53;8.70;99.90
30572;DHT22;17348;50.948;10.696;2023-03-25T04:12:03;8.60;99.90
30572;DHT22;17348;50.948;10.696;2023-03-25T04:15:07;8.60;99.90
30572;DHT22;17348;50.948;10.696;2023-03-25T04:18:10;8.60;99.90
30572;DHT22;17348;50.948;10.696;2023-03-25T04:21:12;8.60;99.90
30572;DHT22;17348;50.948;10.696;2023-03-25T04:24:16;8.50;99.90
30572;DHT22;17348;50.948;10.696;2023-03-25T04:27:21;8.40;99.90
30572;DHT22;17348;50.948;10.696;2023-03-25T04:30:24;8.40;99.90
30572;DHT22;17348;50.948;10.696;2023-03-25T04:33:27;8.40;99.90
30572;DHT22;17348;50.948;10.696;2023-03-25T04:36:31;8.40;99.90
30572;DHT22;17348;50.948;10.696;2023-03-25T04:39:37;8.30;99.90
30572;DHT22;17348;50.948;10.696;2023-03-25T04:42:41;8.30;99.90
30572;DHT22;17348;50.948;10.696;2023-03-25T04:45:46;8.30;99.90
30572;DHT22;17348;50.948;10.696;2023-03-25T04:48:54;8.20;99.90
30572;DHT22;17348;50.948;10.696;2023-03-25T04:51:58;8.20;99.90
30572;DHT22;17348;50.948;10.696;2023-03-25T04:55:02;8.20;99.90
30572;DHT22;17348;50.948;10.696;2023-03-25T04:58:08;8.20;99.90
30572;DHT22;17348;50.948;10.696;2023-03-25T05:01:19;8.20;99.90
30572;DHT22;17348;50.948;10.696;2023-03-25T05:04:23;8.30;99.90
30572;DHT22;17348;50.948;10.696;2023-03-25T05:07:26;8.30;99.90
30572;DHT22;17348;50.948;10.696;2023-03-25T05:10:29;8.30;99.90
30572;DHT22;17348;50.948;10.696;2023-03-25T05:13:33;8.30;99.90
30572;DHT22;17348;50.948;10.696;2023-03-25T05:16:36;8.20;99.90
30572;DHT22;17348;50.948;10.696;2023-03-25T05:19:38;8.20;99.90
30572;DHT22;17348;50.948;10.696;2023-03-25T05:22:43;8.20;99.90
30572;DHT22;17348;50.948;10.696;2023-03-25T05:25:48;8.20;99.90
30572;DHT22;17348;50.948;10.696;2023-03-25T05:28:52;8.10;99.90
30572;DHT22;17348;50.948;10.696;2023-03-25T05:31:56;8.10;99.90
30572;DHT22;17348;50.948;10.696;2023-03-25T05:34:59;8.00;99.90
30572;DHT22;17348;50.948;10.696;2023-03-25T05:38:01;8.00;99.90
30572;DHT22;17348;50.948;10.696;2023-03-25T05:41:04;8.00;99.90
30572;DHT22;17348;50.948;10.696;2023-03-25T05:44:12;8.00;99.90
30572;DHT22;17348;50.948;10.696;2023-03-25T05:47:15;8.00;99.90
30572;DHT22;17348;50.948;10.696;2023-03-25T05:50:17;8.00;99.90
30572;DHT22;17348;50.948;10.696;2023-03-25T05:53:20;8.00;99.90
30572;DHT22;17348;50.948;10.696;2023-03-25T05:56:22;8.00;99.90
30572;DHT22;17348;50.948;10.696;2023-03-25T05:59:27;8.10;99.90
30572;DHT22;17348;50.948;10.696;2023-03-25T06:02:29;8.10;99.90
30572;DHT22;17348;50.948;10.696;2023-03-25T06:05:32;8.10;99.90
30572;DHT22;17348;50.948;10.696;2023-03-25T06:08:35;8.10;99.90
30572;DHT22;17348;50.948;10.696;2023-03-25T06:11:37;8.10;99.90
30572;DHT22;17348;50.948;10.696;2023-03-25T06:14:41;8.10;99.90
30572;DHT22;17348;50.948;10.696;2023-03-25T06:17:45;8.20;99.90
30572;DHT22;17348;50.948;10.696;2023-03-25T06:20:48;8.30;99.90
30572;DHT22;17348;50.948;10.696;2023-03-25T06:23:52;8.30;99.90
30572;DHT22;17348;50.948;10.696;2023-03-25T06:26:54;8.40;99.90
30572;DHT22;17348;50.948;10.696;2023-03-25T06:29:58;8.40;99.90
30572;DHT22;17348;50.948;10.696;2023-03-25T06:33:00;8.50;99.90
30572;DHT22;17348;50.948;10.696;2023-03-25T06:36:07;8.60;99.90
30572;DHT22;17348;50.948;10.696;2023-03-25T06:39:09;8.70;99.90
30572;DHT22;17348;50.948;10.696;2023-03-25T06:42:11;8.70;99.90
30572;DHT22;17348;50.948;10.696;2023-03-25T06:45:15;8.80;99.90
30572;DHT22;17348;50.948;10.696;2023-03-25T06:48:18;8.90;99.90
30572;DHT22;17348;50.948;10.696;2023-03-25T06:51:20;8.90;99.90
30572;DHT22;17348;50.948;10.696;2023-03-25T06:54:23;9.10;99.90
30572;DHT22;17348;50.948;10.696;2023-03-25T06:57:26;9.30;99.90
30572;DHT22;17348;50.948;10.696;2023-03-25T07:00:29;9.30;99.90
30572;DHT22;17348;50.948;10.696;2023-03-25T07:03:32;9.40;99.90
30572;DHT22;17348;50.948;10.696;2023-03-25T07:06:34;9.30;99.90
30572;DHT22;17348;50.948;10.696;2023-03-25T07:09:37;9.50;99.90
30572;DHT22;17348;50.948;10.696;2023-03-25T07:12:39;10.50;99.90
30572;DHT22;17348;50.948;10.696;2023-03-25T07:15:43;10.50;99.90
30572;DHT22;17348;50.948;10.696;2023-03-25T07:18:45;10.70;99.90
30572;DHT22;17348;50.948;10.696;2023-03-25T07:21:48;10.80;99.90
30572;DHT22;17348;50.948;10.696;2023-03-25T07:24:52;10.90;99.90
30572;DHT22;17348;50.948;10.696;2023-03-25T07:27:54;11.00;99.90
30572;DHT22;17348;50.948;10.696;2023-03-25T07:30:58;11.00;99.90
30572;DHT22;17348;50.948;10.696;2023-03-25T07:34:00;11.50;99.90
30572;DHT22;17348;50.948;10.696;2023-03-25T07:37:03;11.80;99.90
30572;DHT22;17348;50.948;10.696;2023-03-25T07:40:07;11.80;99.90
30572;DHT22;17348;50.948;10.696;2023-03-25T07:43:09;12.20;99.90
30572;DHT22;17348;50.948;10.696;2023-03-25T07:46:13;12.20;99.90
30572;DHT22;17348;50.948;10.696;2023-03-25T07:49:16;12.40;99.90
30572;DHT22;17348;50.948;10.696;2023-03-25T07:52:18;14.90;99.90
30572;DHT22;17348;50.948;10.696;2023-03-25T07:55:21;15.80;99.90
30572;DHT22;17348;50.948;10.696;2023-03-25T07:58:23;16.30;99.90
30572;DHT22;17348;50.948;10.696;2023-03-25T08:01:27;16.60;99.90
30572;DHT22;17348;50.948;10.696;2023-03-25T08:04:30;18.20;99.90
30572;DHT22;17348;50.948;10.696;2023-03-25T08:07:33;18.80;99.90
30572;DHT22;17348;50.948;10.696;2023-03-25T08:10:35;18.80;99.90
30572;DHT22;17348;50.948;10.696;2023-03-25T08:13:38;19.30;99.90
30572;DHT22;17348;50.948;10.696;2023-03-25T08:16:42;18.60;99.90
30572;DHT22;17348;50.948;10.696;2023-03-25T08:19:44;18.40;99.90
30572;DHT22;17348;50.948;10.696;2023-03-25T08:22:47;18.00;99.90
30572;DHT22;17348;50.948;10.696;2023-03-25T08:25:50;17.00;99.90
30572;DHT22;17348;50.948;10.696;2023-03-25T08:28:53;17.00;99.90
30572;DHT22;17348;50.948;10.696;2023-03-25T08:31:59;16.80;99.90
30572;DHT22;17348;50.948;10.696;2023-03-25T08:35:01;16.70;99.90
30572;DHT22;17348;50.948;10.696;2023-03-25T08:38:05;16.50;99.90
30572;DHT22;17348;50.948;10.696;2023-03-25T08:41:08;16.30;99.90
30572;DHT22;17348;50.948;10.696;2023-03-25T08:44:11;15.70;99.90
30572;DHT22;17348;50.948;10.696;2023-03-25T08:47:15;15.20;99.90
30572;DHT22;17348;50.948;10.696;2023-03-25T08:50:17;14.70;99.90
30572;DHT22;17348;50.948;10.696;2023-03-25T08:53:21;14.40;99.90
30572;DHT22;17348;50.948;10.696;2023-03-25T08:56:23;13.70;99.90
30572;DHT22;17348;50.948;10.696;2023-03-25T08:59:26;13.20;99.90
30572;DHT22;17348;50.948;10.696;2023-03-25T09:02:29;12.80;99.90
30572;DHT22;17348;50.948;10.696;2023-03-25T09:05:32;12.30;99.90
30572;DHT22;17348;50.948;10.696;2023-03-25T09:08:35;12.10;99.90
30572;DHT22;17348;50.948;10.696;2023-03-25T09:11:38;12.20;99.90
30572;DHT22;17348;50.948;10.696;2023-03-25T09:14:40;12.20;99.90
30572;DHT22;17348;50.948;10.696;2023-03-25T09:17:44;12.30;99.90
30572;DHT22;17348;50.948;10.696;2023-03-25T09:20:46;12.40;99.90
30572;DHT22;17348;50.948;10.696;2023-03-25T09:23:49;12.40;99.90
30572;DHT22;17348;50.948;10.696;2023-03-25T09:26:51;12.70;99.90
30572;DHT22;17348;50.948;10.696;2023-03-25T09:29:54;12.80;99.90
30572;DHT22;17348;50.948;10.696;2023-03-25T09:32:59;13.00;99.90
30572;DHT22;17348;50.948;10.696;2023-03-25T09:36:02;13.30;99.90
30572;DHT22;17348;50.948;10.696;2023-03-25T09:39:04;13.40;99.90
30572;DHT22;17348;50.948;10.696;2023-03-25T09:42:29;13.40;99.90
30572;DHT22;17348;50.948;10.696;2023-03-25T09:45:35;13.30;99.90
30572;DHT22;17348;50.948;10.696;2023-03-25T09:48:42;13.50;99.90
30572;DHT22;17348;50.948;10.696;2023-03-25T09:51:47;13.40;99.90
30572;DHT22;17348;50.948;10.696;2023-03-25T09:54:53;13.30;99.90
30572;DHT22;17348;50.948;10.696;2023-03-25T09:58:04;13.30;99.90
30572;DHT22;17348;50.948;10.696;2023-03-25T10:01:32;13.30;99.90
30572;DHT22;17348;50.948;10.696;2023-03-25T10:08:10;13.70;99.90
30572;DHT22;17348;50.948;10.696;2023-03-25T10:11:24;13.90;99.90
30572;DHT22;17348;50.948;10.696;2023-03-25T10:14:34;13.90;99.90
30572;DHT22;17348;50.948;10.696;2023-03-25T10:17:46;14.00;99.90
30572;DHT22;17348;50.948;10.696;2023-03-25T10:21:01;14.00;99.90
30572;DHT22;17348;50.948;10.696;2023-03-25T10:24:15;13.80;99.90
30572;DHT22;17348;50.948;10.696;2023-03-25T10:27:21;13.60;99.90
30572;DHT22;17348;50.948;10.696;2023-03-25T10:30:26;13.40;99.90
30572;DHT22;17348;50.948;10.696;2023-03-25T10:33:34;13.50;99.90
30572;DHT22;17348;50.948;10.696;2023-03-25T10:36:41;13.50;99.90
30572;DHT22;17348;50.948;10.696;2023-03-25T10:39:47;13.50;99.90
30572;DHT22;17348;50.948;10.696;2023-03-25T10:42:58;13.60;99.90
30572;DHT22;17348;50.948;10.696;2023-03-25T10:46:10;13.60;99.90
30572;DHT22;17348;50.948;10.696;2023-03-25T10:49:16;13.50;99.90
30572;DHT22;17348;50.948;10.696;2023-03-25T10:52:20;13.50;99.90
30572;DHT22;17348;50.948;10.696;2023-03-25T10:55:27;13.50;99.90
30572;DHT22;17348;50.948;10.696;2023-03-25T10:58:30;13.50;99.90
30572;DHT22;17348;50.948;10.696;2023-03-25T11:01:35;13.60;99.90
30572;DHT22;17348;50.948;10.696;2023-03-25T11:04:41;13.60;99.90
30572;DHT22;17348;50.948;10.696;2023-03-25T11:07:49;13.50;99.90
30572;DHT22;17348;50.948;10.696;2023-03-25T11:10:53;13.50;99.90
30572;DHT22;17348;50.948;10.696;2023-03-25T11:13:57;13.50;99.90
30572;DHT22;17348;50.948;10.696;2023-03-25T11:17:01;13.40;99.90
30572;DHT22;17348;50.948;10.696;2023-03-25T11:20:10;13.40;99.90
30572;DHT22;17348;50.948;10.696;2023-03-25T11:23:24;13.20;99.90
30572;DHT22;17348;50.948;10.696;2023-03-25T11:26:28;13.00;99.90
30572;DHT22;17348;50.948;10.696;2023-03-25T11:29:37;12.40;99.90
30572;DHT22;17348;50.948;10.696;2023-03-25T11:32:40;11.00;99.90
30572;DHT22;17348;50.948;10.696;2023-03-25T11:35:43;10.10;99.90
30572;DHT22;17348;50.948;10.696;2023-03-25T11:38:56;9.70;99.90
30572;DHT22;17348;50.948;10.696;2023-03-25T11:41:59;9.30;99.90
30572;DHT22;17348;50.948;10.696;2023-03-25T11:45:18;8.90;99.90
30572;DHT22;17348;50.948;10.696;2023-03-25T11:48:22;8.70;99.90
30572;DHT22;17348;50.948;10.696;2023-03-25T11:51:27;8.60;99.90
30572;DHT22;17348;50.948;10.696;2023-03-25T11:54:33;8.50;99.90
30572;DHT22;17348;50.948;10.696;2023-03-25T11:57:38;8.20;99.90
30572;DHT22;17348;50.948;10.696;2023-03-25T12:00:46;8.20;99.90
30572;DHT22;17348;50.948;10.696;2023-03-25T12:03:50;8.10;99.90
30572;DHT22;17348;50.948;10.696;2023-03-25T12:06:55;8.20;99.90
30572;DHT22;17348;50.948;10.696;2023-03-25T12:10:06;8.30;99.90
30572;DHT22;17348;50.948;10.696;2023-03-25T12:13:11;8.50;99.90
30572;DHT22;17348;50.948;10.696;2023-03-25T12:16:22;8.60;99.90
30572;DHT22;17348;50.948;10.696;2023-03-25T12:19:35;8.80;99.90
30572;DHT22;17348;50.948;10.696;2023-03-25T12:22:52;9.10;99.90
30572;DHT22;17348;50.948;10.696;2023-03-25T12:26:06;9.20;99.90
30572;DHT22;17348;50.948;10.696;2023-03-25T12:29:21;9.40;99.90
30572;DHT22;17348;50.948;10.696;2023-03-25T12:32:34;9.50;99.90
30572;DHT22;17348;50.948;10.696;2023-03-25T12:35:42;9.60;99.90
30572;DHT22;17348;50.948;10.696;2023-03-25T12:38:54;9.80;99.90
30572;DHT22;17348;50.948;10.696;2023-03-25T12:42:12;10.00;99.90
30572;DHT22;17348;50.948;10.696;2023-03-25T12:45:31;10.30;99.90
30572;DHT22;17348;50.948;10.696;2023-03-25T12:48:50;10.60;99.90
30572;DHT22;17348;50.948;10.696;2023-03-25T12:52:00;10.80;99.90
30572;DHT22;17348;50.948;10.696;2023-03-25T12:55:33;11.00;99.90
30572;DHT22;17348;50.948;10.696;2023-03-25T12:58:53;11.00;99.90
30572;DHT22;17348;50.948;10.696;2023-03-25T13:02:13;10.90;99.90
30572;DHT22;17348;50.948;10.696;2023-03-25T13:05:21;11.00;99.90
30572;DHT22;17348;50.948;10.696;2023-03-25T13:08:28;11.10;99.90
30572;DHT22;17348;50.948;10.696;2023-03-25T13:11:37;11.10;99.90
30572;DHT22;17348;50.948;10.696;2023-03-25T13:14:49;11.30;99.90
30572;DHT22;17348;50.948;10.696;2023-03-25T13:17:56;11.40;99.90
30572;DHT22;17348;50.948;10.696;2023-03-25T13:21:04;11.30;99.90
30572;DHT22;17348;50.948;10.696;2023-03-25T13:24:11;11.20;99.90
30572;DHT22;17348;50.948;10.696;2023-03-25T13:27:16;11.20;99.90
30572;DHT22;17348;50.948;10.696;2023-03-25T13:30:28;11.10;99.90
30572;DHT22;17348;50.948;10.696;2023-03-25T13:33:34;11.20;99.90
30572;DHT22;17348;50.948;10.696;2023-03-25T13:36:41;11.10;99.90
30572;DHT22;17348;50.948;10.696;2023-03-25T13:39:59;11.20;99.90
30572;DHT22;17348;50.948;10.696;2023-03-25T13:43:22;11.20;99.90
30572;DHT22;17348;50.948;10.696;2023-03-25T13:46:32;11.30;99.90
30572;DHT22;17348;50.948;10.696;2023-03-25T13:49:39;11.30;99.90
30572;DHT22;17348;50.948;10.696;2023-03-25T13:52:47;11.40;99.90
30572;DHT22;17348;50.948;10.696;2023-03-25T13:55:59;11.50;99.90
30572;DHT22;17348;50.948;10.696;2023-03-25T14:02:58;12.10;99.90
30572;DHT22;17348;50.948;10.696;2023-03-25T14:10:34;12.30;99.90
30572;DHT22;17348;50.948;10.696;2023-03-25T14:13:42;12.40;99.90
30572;DHT22;17348;50.948;10.696;2023-03-25T14:16:48;12.50;99.90
30572;DHT22;17348;50.948;10.696;2023-03-25T14:19:55;12.60;99.90
30572;DHT22;17348;50.948;10.696;2023-03-25T14:23:02;12.60;99.90
30572;DHT22;17348;50.948;10.696;2023-03-25T14:26:08;12.60;99.90
30572;DHT22;17348;50.948;10.696;2023-03-25T14:29:19;12.50;99.90
30572;DHT22;17348;50.948;10.696;2023-03-25T14:32:33;12.50;99.90
30572;DHT22;17348;50.948;10.696;2023-03-25T14:35:58;12.50;99.90
30572;DHT22;17348;50.948;10.696;2023-03-25T14:39:00;12.50;99.90
30572;DHT22;17348;50.948;10.696;2023-03-25T14:42:21;12.50;99.90
30572;DHT22;17348;50.948;10.696;2023-03-25T14:45:59;12.60;99.90
30572;DHT22;17348;50.948;10.696;2023-03-25T14:49:18;12.70;99.90
30572;DHT22;17348;50.948;10.696;2023-03-25T14:52:27;12.70;99.90
30572;DHT22;17348;50.948;10.696;2023-03-25T14:55:33;12.70;99.90
30572;DHT22;17348;50.948;10.696;2023-03-25T14:58:37;12.60;99.90
30572;DHT22;17348;50.948;10.696;2023-03-25T15:01:41;12.60;99.90
30572;DHT22;17348;50.948;10.696;2023-03-25T15:04:45;12.40;99.90
30572;DHT22;17348;50.948;10.696;2023-03-25T15:07:57;12.60;99.90
30572;DHT22;17348;50.948;10.696;2023-03-25T15:11:05;12.80;99.90
30572;DHT22;17348;50.948;10.696;2023-03-25T15:14:12;13.00;99.90
30572;DHT22;17348;50.948;10.696;2023-03-25T15:17:38;13.10;99.90
30572;DHT22;17348;50.948;10.696;2023-03-25T15:20:40;13.20;99.90
30572;DHT22;17348;50.948;10.696;2023-03-25T15:23:45;13.10;99.90
30572;DHT22;17348;50.948;10.696;2023-03-25T15:26:48;13.00;99.90
30572;DHT22;17348;50.948;10.696;2023-03-25T15:29:59;13.10;99.90
30572;DHT22;17348;50.948;10.696;2023-03-25T15:33:13;12.80;99.90
30572;DHT22;17348;50.948;10.696;2023-03-25T15:36:37;12.50;99.90
30572;DHT22;17348;50.948;10.696;2023-03-25T15:40:01;12.40;99.90
30572;DHT22;17348;50.948;10.696;2023-03-25T15:43:52;12.20;99.90
30572;DHT22;17348;50.948;10.696;2023-03-25T15:47:08;11.90;99.90
30572;DHT22;17348;50.948;10.696;2023-03-25T15:50:40;11.70;99.90
30572;DHT22;17348;50.948;10.696;2023-03-25T15:53:57;11.10;99.90
30572;DHT22;17348;50.948;10.696;2023-03-25T15:57:12;10.60;99.90
30572;DHT22;17348;50.948;10.696;2023-03-25T16:00:21;10.60;99.90
30572;DHT22;17348;50.948;10.696;2023-03-25T16:03:27;10.60;99.90
30572;DHT22;17348;50.948;10.696;2023-03-25T16:06:33;10.80;99.90
30572;DHT22;17348;50.948;10.696;2023-03-25T16:09:39;10.90;99.90
30572;DHT22;17348;50.948;10.696;2023-03-25T16:12:48;11.00;99.90
30572;DHT22;17348;50.948;10.696;2023-03-25T16:15:53;11.00;99.90
30572;DHT22;17348;50.948;10.696;2023-03-25T16:18:57;10.90;99.90
30572;DHT22;17348;50.948;10.696;2023-03-25T16:22:01;10.80;99.90
30572;DHT22;17348;50.948;10.696;2023-03-25T16:25:06;10.70;99.90
30572;DHT22;17348;50.948;10.696;2023-03-25T16:28:22;10.50;99.90
30572;DHT22;17348;50.948;10.696;2023-03-25T16:31:30;10.40;99.90
30572;DHT22;17348;50.948;10.696;2023-03-25T16:34:35;10.20;99.90
30572;DHT22;17348;50.948;10.696;2023-03-25T16:37:39;10.10;99.90
30572;DHT22;17348;50.948;10.696;2023-03-25T16:40:42;10.00;99.90
30572;DHT22;17348;50.948;10.696;2023-03-25T16:43:48;9.90;99.90
30572;DHT22;17348;50.948;10.696;2023-03-25T16:46:51;9.80;99.90
30572;DHT22;17348;50.948;10.696;2023-03-25T16:49:54;9.70;99.90
30572;DHT22;17348;50.948;10.696;2023-03-25T16:52:58;9.70;99.90
30572;DHT22;17348;50.948;10.696;2023-03-25T16:56:20;9.70;99.90
30572;DHT22;17348;50.948;10.696;2023-03-25T16:59:27;9.70;99.90
30572;DHT22;17348;50.948;10.696;2023-03-25T17:02:37;9.70;99.90
30572;DHT22;17348;50.948;10.696;2023-03-25T17:05:51;9.70;99.90
30572;DHT22;17348;50.948;10.696;2023-03-25T17:08:56;9.80;99.90
30572;DHT22;17348;50.948;10.696;2023-03-25T17:11:59;9.90;99.90
30572;DHT22;17348;50.948;10.696;2023-03-25T17:15:05;9.90;99.90
30572;DHT22;17348;50.948;10.696;2023-03-25T17:18:13;9.90;99.90
30572;DHT22;17348;50.948;10.696;2023-03-25T17:21:21;9.80;99.90
30572;DHT22;17348;50.948;10.696;2023-03-25T17:24:26;9.40;99.90
30572;DHT22;17348;50.948;10.696;2023-03-25T17:27:34;9.20;99.90
30572;DHT22;17348;50.948;10.696;2023-03-25T17:30:40;9.00;99.90
30572;DHT22;17348;50.948;10.696;2023-03-25T17:33:47;8.80;99.90
30572;DHT22;17348;50.948;10.696;2023-03-25T17:36:57;8.70;99.90
30572;DHT22;17348;50.948;10.696;2023-03-25T17:40:04;8.70;99.90
30572;DHT22;17348;50.948;10.696;2023-03-25T17:43:16;8.50;99.90
30572;DHT22;17348;50.948;10.696;2023-03-25T17:46:21;8.40;99.90
30572;DHT22;17348;50.948;10.696;2023-03-25T17:49:24;8.30;99.90
30572;DHT22;17348;50.948;10.696;2023-03-25T17:52:26;8.30;99.90
30572;DHT22;17348;50.948;10.696;2023-03-25T17:55:29;8.40;99.90
30572;DHT22;17348;50.948;10.696;2023-03-25T17:58:31;8.20;99.90
30572;DHT22;17348;50.948;10.696;2023-03-25T18:01:35;8.20;99.90
30572;DHT22;17348;50.948;10.696;2023-03-25T18:04:38;8.10;99.90
30572;DHT22;17348;50.948;10.696;2023-03-25T18:07:40;8.10;99.90
30572;DHT22;17348;50.948;10.696;2023-03-25T18:10:42;8.20;99.90
30572;DHT22;17348;50.948;10.696;2023-03-25T18:13:45;8.10;99.90
30572;DHT22;17348;50.948;10.696;2023-03-25T18:16:50;8.20;99.90
30572;DHT22;17348;50.948;10.696;2023-03-25T18:19:52;8.20;99.90
30572;DHT22;17348;50.948;10.696;2023-03-25T18:22:55;8.10;99.90
30572;DHT22;17348;50.948;10.696;2023-03-25T18:25:57;8.20;99.90
30572;DHT22;17348;50.948;10.696;2023-03-25T18:29:00;8.30;99.90
30572;DHT22;17348;50.948;10.696;2023-03-25T18:32:06;8.30;99.90
30572;DHT22;17348;50.948;10.696;2023-03-25T18:35:09;8.30;99.90
30572;DHT22;17348;50.948;10.696;2023-03-25T18:38:15;8.30;99.90
30572;DHT22;17348;50.948;10.696;2023-03-25T18:41:20;8.30;99.90
30572;DHT22;17348;50.948;10.696;2023-03-25T18:44:23;8.40;99.90
30572;DHT22;17348;50.948;10.696;2023-03-25T18:47:29;8.40;99.90
30572;DHT22;17348;50.948;10.696;2023-03-25T18:50:34;8.40;99.90
30572;DHT22;17348;50.948;10.696;2023-03-25T18:53:36;8.40;99.90
30572;DHT22;17348;50.948;10.696;2023-03-25T18:56:38;8.40;99.90
30572;DHT22;17348;50.948;10.696;2023-03-25T18:59:42;8.30;99.90
30572;DHT22;17348;50.948;10.696;2023-03-25T19:02:46;8.30;99.90
30572;DHT22;17348;50.948;10.696;2023-03-25T19:05:48;8.30;99.90
30572;DHT22;17348;50.948;10.696;2023-03-25T19:08:51;8.20;99.90
30572;DHT22;17348;50.948;10.696;2023-03-25T19:11:53;8.10;99.90
30572;DHT22;17348;50.948;10.696;2023-03-25T19:14:56;8.10;99.90
30572;DHT22;17348;50.948;10.696;2023-03-25T19:17:59;8.10;99.90
30572;DHT22;17348;50.948;10.696;2023-03-25T19:21:02;8.10;99.90
30572;DHT22;17348;50.948;10.696;2023-03-25T19:24:05;8.10;99.90
30572;DHT22;17348;50.948;10.696;2023-03-25T19:27:08;8.10;99.90
30572;DHT22;17348;50.948;10.696;2023-03-25T19:30:13;8.20;99.90
30572;DHT22;17348;50.948;10.696;2023-03-25T19:33:17;8.10;99.90
30572;DHT22;17348;50.948;10.696;2023-03-25T19:36:20;8.10;99.90
30572;DHT22;17348;50.948;10.696;2023-03-25T19:39:25;8.10;99.90
30572;DHT22;17348;50.948;10.696;2023-03-25T19:42:28;8.00;99.90
30572;DHT22;17348;50.948;10.696;2023-03-25T19:45:30;7.90;99.90
30572;DHT22;17348;50.948;10.696;2023-03-25T19:48:34;7.90;99.90
30572;DHT22;17348;50.948;10.696;2023-03-25T19:51:37;7.80;99.90